Time;durP1;ratioP1;P1;durP2;ratioP2;P2;SDS_P1;SDS_P2;PMS_P1;PMS_P2;Temp;Humidity;BMP_temperature;BMP_pressure;BME280_temperature;BME280_humidity;BME280_pressure;Samples;Min_cycle;Max_cycle;Signal;HPM_P1;HPM_P2
2023/04/10 00:00:05;;;;;;;15.63;9.40;;;6.90;99.90;;;;;;5007967;28;20205;-85
2023/04/10 00:02:31;;;;;;;16.98;9.77;;;6.90;99.90;;;;;;5000607;28;20190;-85
2023/04/10 00:04:57;;;;;;;18.83;9.27;;;7.00;99.90;;;;;;5001507;28;20174;-84
2023/04/10 00:07:22;;;;;;;15.47;8.07;;;7.10;99.90;;;;;;5003788;28;20208;-84
2023/04/10 00:09:48;;;;;;;13.00;8.80;;;7.20;99.90;;;;;;5002616;28;20285;-83
2023/04/10 00:12:14;;;;;;;14.13;8.03;;;7.20;99.90;;;;;;5001726;28;20866;-83
2023/04/10 00:14:40;;;;;;;11.60;6.95;;;7.20;99.90;;;;;;4999231;28;20238;-83
2023/04/10 00:17:06;;;;;;;12.80;8.47;;;7.20;99.90;;;;;;5004387;28;20210;-83
2023/04/10 00:19:32;;;;;;;12.27;7.83;;;7.20;99.90;;;;;;5005189;28;20980;-84
2023/04/10 00:21:57;;;;;;;14.93;9.00;;;7.20;99.90;;;;;;5004357;28;20201;-84
2023/04/10 00:24:23;;;;;;;15.93;7.87;;;7.10;99.90;;;;;;4998786;28;20270;-84
2023/04/10 00:26:48;;;;;;;14.33;8.93;;;7.00;99.90;;;;;;4996352;28;20860;-83
2023/04/10 00:29:14;;;;;;;16.83;9.37;;;7.00;99.90;;;;;;5004704;28;20215;-83
2023/04/10 00:31:39;;;;;;;15.67;8.03;;;6.90;99.90;;;;;;5008136;28;20183;-83
2023/04/10 00:34:05;;;;;;;10.47;6.33;;;7.00;99.90;;;;;;5002835;28;20179;-83
2023/04/10 00:36:31;;;;;;;15.57;8.50;;;6.90;99.90;;;;;;5000477;28;20172;-84
2023/04/10 00:38:58;;;;;;;14.40;8.68;;;6.90;99.90;;;;;;5001028;28;20504;-84
2023/04/10 00:41:24;;;;;;;16.58;9.65;;;6.80;99.90;;;;;;5015286;28;20195;-84
2023/04/10 00:43:57;;;;;;;11.20;7.30;;;6.70;99.90;;;;;;4992524;28;20182;-83
2023/04/10 00:46:23;;;;;;;14.50;8.43;;;6.70;99.90;;;;;;5014675;28;20464;-84
2023/04/10 00:48:51;;;;;;;14.23;8.67;;;6.60;99.90;;;;;;5002143;28;20247;-84
2023/04/10 00:51:19;;;;;;;16.45;9.75;;;6.60;99.90;;;;;;5002422;28;20438;-84
2023/04/10 00:53:46;;;;;;;15.23;8.55;;;6.60;99.90;;;;;;5002245;28;20191;-84
2023/04/10 00:56:11;;;;;;;18.20;10.05;;;6.60;99.90;;;;;;5002197;28;20171;-84
2023/04/10 00:58:37;;;;;;;17.67;9.73;;;6.40;99.90;;;;;;5009450;28;20196;-84
2023/04/10 01:01:03;;;;;;;24.67;13.13;;;6.50;99.90;;;;;;5010648;28;20198;-83
2023/04/10 01:03:28;;;;;;;16.70;9.00;;;6.40;99.90;;;;;;4994351;28;20182;-83
2023/04/10 01:06:31;;;;;;;16.93;9.57;;;6.40;99.90;;;;;;4989454;28;20183;-84
2023/04/10 01:09:19;;;;;;;16.65;10.43;;;6.40;99.90;;;;;;5015322;28;21033;-84
2023/04/10 01:12:11;;;;;;;13.15;9.45;;;6.50;99.90;;;;;;4989371;28;20677;-85
2023/04/10 01:15:03;;;;;;;10.75;6.82;;;6.40;99.90;;;;;;5009579;28;20234;-83
2023/04/10 01:17:45;;;;;;;18.42;9.48;;;6.40;99.90;;;;;;4988886;28;20214;-83
2023/04/10 01:20:28;;;;;;;13.07;8.02;;;6.40;99.90;;;;;;5002799;28;20288;-84
2023/04/10 01:23:25;;;;;;;17.73;9.95;;;6.30;99.90;;;;;;5004443;28;20182;-84
2023/04/10 01:25:57;;;;;;;19.35;9.95;;;6.30;99.90;;;;;;4998705;28;20195;-82
2023/04/10 01:28:51;;;;;;;16.33;9.25;;;6.10;99.90;;;;;;5000851;28;20210;-83
2023/04/10 01:31:25;;;;;;;12.35;7.82;;;6.10;99.90;;;;;;5013287;28;20183;-83
2023/04/10 01:33:57;;;;;;;15.68;8.60;;;6.10;99.90;;;;;;4994180;28;20217;-83
2023/04/10 01:36:29;;;;;;;17.52;9.35;;;6.30;99.90;;;;;;4990907;28;20691;-84
2023/04/10 01:38:57;;;;;;;13.20;7.93;;;6.20;99.90;;;;;;4990926;28;20254;-83
2023/04/10 01:41:23;;;;;;;11.88;7.28;;;6.20;99.90;;;;;;5002210;28;21105;-83
2023/04/10 01:43:51;;;;;;;14.60;7.70;;;6.20;99.90;;;;;;4999321;28;20707;-82
2023/04/10 01:46:19;;;;;;;15.00;8.57;;;6.20;99.90;;;;;;4991703;28;20209;-82
2023/04/10 01:48:46;;;;;;;12.20;8.32;;;6.10;99.90;;;;;;5008414;28;20175;-84
2023/04/10 01:51:13;;;;;;;11.13;7.07;;;6.10;99.90;;;;;;5002891;28;20655;-83
2023/04/10 01:53:40;;;;;;;15.07;8.38;;;6.10;99.90;;;;;;5006376;28;20183;-84
2023/04/10 01:56:07;;;;;;;16.65;9.82;;;6.10;99.90;;;;;;4998574;28;20190;-84
2023/04/10 01:58:34;;;;;;;15.52;8.95;;;6.00;99.90;;;;;;5013923;28;20796;-83
2023/04/10 02:01:00;;;;;;;18.75;10.25;;;6.00;99.90;;;;;;5003131;28;20210;-83
2023/04/10 02:03:26;;;;;;;14.73;9.50;;;5.90;99.90;;;;;;4997260;28;20182;-83
2023/04/10 02:06:03;;;;;;;13.80;8.70;;;5.80;99.90;;;;;;5003459;28;20451;-84
2023/04/10 02:08:51;;;;;;;16.95;9.32;;;5.80;99.90;;;;;;5007099;28;20179;-83
2023/04/10 02:11:41;;;;;;;16.40;9.63;;;5.70;99.90;;;;;;5006198;28;20869;-83
2023/04/10 02:14:10;;;;;;;14.25;8.48;;;5.60;99.90;;;;;;5004579;28;20496;-84
2023/04/10 02:16:37;;;;;;;16.42;7.93;;;5.50;99.90;;;;;;5005588;28;20226;-84
2023/04/10 02:19:04;;;;;;;17.45;9.27;;;5.40;99.90;;;;;;5005106;28;20202;-85
2023/04/10 02:21:31;;;;;;;13.57;8.13;;;5.40;99.90;;;;;;5006019;28;20193;-83
2023/04/10 02:23:57;;;;;;;18.83;10.27;;;5.40;99.90;;;;;;4994506;28;20178;-85
2023/04/10 02:26:23;;;;;;;17.20;8.97;;;5.30;99.90;;;;;;5003539;28;20608;-83
2023/04/10 02:28:48;;;;;;;16.13;8.30;;;5.20;99.90;;;;;;5003346;28;20395;-84
2023/04/10 02:31:14;;;;;;;13.60;8.17;;;5.20;99.90;;;;;;5003827;28;20197;-85
2023/04/10 02:33:40;;;;;;;34.27;13.70;;;5.30;99.90;;;;;;4999216;28;20182;-85
2023/04/10 02:36:06;;;;;;;19.23;9.80;;;5.30;99.90;;;;;;4998108;28;20554;-85
2023/04/10 02:38:31;;;;;;;14.45;8.43;;;5.40;99.90;;;;;;4995420;28;20205;-84
2023/04/10 02:40:56;;;;;;;11.80;7.03;;;5.40;99.90;;;;;;5013583;28;20191;-85
2023/04/10 02:43:22;;;;;;;14.57;9.23;;;5.50;99.90;;;;;;5001586;28;20253;-84
2023/04/10 02:45:48;;;;;;;17.80;9.67;;;5.60;99.90;;;;;;4997281;28;20182;-85
2023/04/10 02:48:13;;;;;;;15.53;8.53;;;5.60;99.90;;;;;;4999395;28;20669;-85
2023/04/10 02:50:39;;;;;;;17.10;9.40;;;5.70;99.90;;;;;;5000471;28;22203;-85
2023/04/10 02:53:05;;;;;;;17.35;8.85;;;5.80;99.90;;;;;;4998077;28;20205;-83
2023/04/10 02:55:30;;;;;;;18.70;8.77;;;5.70;99.90;;;;;;4999618;28;20183;-84
2023/04/10 02:57:56;;;;;;;20.40;9.40;;;5.70;99.90;;;;;;4994573;28;20194;-85
2023/04/10 03:00:22;;;;;;;13.37;7.97;;;5.70;99.90;;;;;;5001139;28;20218;-85
2023/04/10 03:02:47;;;;;;;14.23;8.60;;;5.60;99.90;;;;;;5003685;28;20205;-83
2023/04/10 03:05:13;;;;;;;16.53;9.80;;;5.60;99.90;;;;;;5022313;28;20228;-83
2023/04/10 03:07:38;;;;;;;15.60;7.80;;;5.50;99.90;;;;;;5006025;28;20176;-84
2023/04/10 03:10:04;;;;;;;15.07;9.13;;;5.60;99.90;;;;;;5003293;28;20252;-84
2023/04/10 03:12:30;;;;;;;13.70;7.03;;;5.60;99.90;;;;;;5020321;28;20697;-84
2023/04/10 03:14:55;;;;;;;19.73;7.37;;;5.70;99.90;;;;;;5005625;28;20182;-84
2023/04/10 03:17:21;;;;;;;16.63;9.63;;;5.70;99.90;;;;;;4999574;28;20182;-83
2023/04/10 03:19:46;;;;;;;13.30;8.37;;;5.70;99.90;;;;;;5003078;28;20286;-84
2023/04/10 03:22:12;;;;;;;14.33;9.00;;;5.70;99.90;;;;;;5012026;28;20278;-85
2023/04/10 03:24:38;;;;;;;13.90;8.53;;;5.70;99.90;;;;;;5002962;28;20543;-85
2023/04/10 03:27:04;;;;;;;13.52;8.95;;;5.60;99.90;;;;;;5007622;28;20198;-83
2023/04/10 03:29:29;;;;;;;13.57;8.57;;;5.60;99.90;;;;;;5005817;28;20210;-82
2023/04/10 03:31:56;;;;;;;15.43;8.13;;;5.60;99.90;;;;;;5004970;28;20184;-84
2023/04/10 03:34:21;;;;;;;17.25;9.25;;;5.60;99.90;;;;;;5007613;28;20198;-84
2023/04/10 03:36:47;;;;;;;14.87;9.03;;;5.50;99.90;;;;;;5006171;28;20552;-83
2023/04/10 03:39:12;;;;;;;14.60;8.40;;;5.60;99.90;;;;;;5008046;28;20240;-83
2023/04/10 03:41:38;;;;;;;13.50;7.83;;;5.50;99.90;;;;;;5022385;28;20205;-84
2023/04/10 03:44:03;;;;;;;14.80;10.17;;;5.50;99.90;;;;;;5000807;28;20202;-84
2023/04/10 03:46:29;;;;;;;21.43;12.00;;;5.40;99.90;;;;;;5002080;28;20187;-84
2023/04/10 03:48:54;;;;;;;15.60;8.60;;;5.30;99.90;;;;;;5001891;28;20703;-84
2023/04/10 03:51:22;;;;;;;15.10;8.63;;;5.40;99.90;;;;;;4999193;28;20190;-83
2023/04/10 03:53:47;;;;;;;12.50;7.85;;;5.50;99.90;;;;;;4999809;28;20194;-83
2023/04/10 03:56:13;;;;;;;17.67;9.00;;;;;;;;;;5000544;28;20261;-83
2023/04/10 03:58:39;;;;;;;12.18;7.85;;;5.50;99.90;;;;;;5005700;28;20191;-84
2023/04/10 04:01:04;;;;;;;13.97;8.03;;;5.50;99.90;;;;;;5006064;28;20290;-84
2023/04/10 04:03:30;;;;;;;14.20;7.77;;;5.50;99.90;;;;;;5006349;28;20803;-83
2023/04/10 04:05:55;;;;;;;13.60;7.43;;;5.40;99.90;;;;;;5005006;28;20190;-85
2023/04/10 04:08:21;;;;;;;12.57;7.10;;;5.40;99.90;;;;;;5003194;28;20228;-83
2023/04/10 04:10:47;;;;;;;20.53;9.63;;;5.40;99.90;;;;;;4999487;28;20297;-82
2023/04/10 04:13:12;;;;;;;17.70;7.27;;;5.40;99.90;;;;;;4998261;28;20201;-83
2023/04/10 04:15:38;;;;;;;12.00;7.00;;;5.50;99.90;;;;;;5006017;28;20188;-84
2023/04/10 04:18:03;;;;;;;13.73;7.70;;;5.60;99.90;;;;;;5002681;28;20190;-84
2023/04/10 04:20:29;;;;;;;12.00;6.43;;;5.70;99.90;;;;;;5006946;28;20209;-84
2023/04/10 04:22:54;;;;;;;11.17;6.27;;;5.90;99.90;;;;;;5006613;28;20193;-85
2023/04/10 04:25:20;;;;;;;12.47;6.30;;;5.80;99.90;;;;;;5001816;28;20175;-85
2023/04/10 04:27:45;;;;;;;11.30;7.50;;;5.80;99.90;;;;;;5002031;28;20190;-85
2023/04/10 04:30:11;;;;;;;12.83;7.23;;;5.90;99.90;;;;;;5005032;28;20187;-85
2023/04/10 04:32:37;;;;;;;11.80;6.80;;;5.80;99.90;;;;;;5007440;28;20203;-85
2023/04/10 04:35:02;;;;;;;16.00;7.10;;;5.90;99.90;;;;;;5006050;28;20437;-84
2023/04/10 04:37:28;;;;;;;11.03;6.60;;;6.00;99.90;;;;;;5007244;28;20183;-85
2023/04/10 04:39:53;;;;;;;8.77;5.93;;;6.00;99.90;;;;;;5004413;28;20694;-85
2023/04/10 04:42:19;;;;;;;12.83;6.77;;;6.00;99.90;;;;;;5006756;28;20183;-85
2023/04/10 04:44:44;;;;;;;10.23;7.40;;;6.00;99.90;;;;;;5006357;28;20656;-85
2023/04/10 04:47:10;;;;;;;15.00;8.80;;;6.00;99.90;;;;;;5019889;28;20174;-84
2023/04/10 04:49:36;;;;;;;13.97;6.50;;;6.00;99.90;;;;;;5007930;28;20666;-85
2023/04/10 04:52:01;;;;;;;12.70;7.20;;;6.10;99.90;;;;;;5006920;28;20187;-84
2023/04/10 04:54:27;;;;;;;11.73;6.77;;;6.20;99.90;;;;;;5003638;28;20183;-83
2023/04/10 04:56:52;;;;;;;11.00;6.93;;;6.20;99.90;;;;;;5006038;28;20191;-85
2023/04/10 04:59:18;;;;;;;12.57;6.97;;;6.30;99.90;;;;;;5020094;28;20207;-84
2023/04/10 05:01:43;;;;;;;12.17;7.30;;;6.50;99.90;;;;;;5004102;28;20201;-84
2023/04/10 05:04:09;;;;;;;12.17;7.00;;;6.80;99.90;;;;;;5004324;28;20180;-84
2023/04/10 05:06:37;;;;;;;10.30;6.80;;;6.80;99.90;;;;;;5019004;28;20179;-84
2023/04/10 05:09:03;;;;;;;9.27;6.10;;;8.30;99.90;;;;;;5032967;28;20356;-84
2023/04/10 05:11:28;;;;;;;11.37;6.60;;;9.10;99.90;;;;;;5014680;28;20183;-83
2023/04/10 05:13:54;;;;;;;11.80;6.07;;;;;;;;;;5020050;28;20241;-83
2023/04/10 05:16:20;;;;;;;5.73;3.73;;;9.30;99.90;;;;;;5019242;28;20186;-85
2023/04/10 05:18:46;;;;;;;12.40;6.20;;;8.80;99.90;;;;;;5018428;28;20463;-85
2023/04/10 05:21:12;;;;;;;13.33;7.07;;;;;;;;;;5015100;28;20469;-85
2023/04/10 05:23:37;;;;;;;11.27;6.63;;;8.70;99.90;;;;;;5028329;28;20178;-83
2023/04/10 05:26:04;;;;;;;11.87;6.73;;;8.60;99.90;;;;;;5022980;28;20552;-83
2023/04/10 05:28:30;;;;;;;9.43;5.53;;;8.60;99.90;;;;;;5020026;28;20534;-83
2023/04/10 05:30:56;;;;;;;11.03;6.10;;;8.60;99.90;;;;;;5020408;28;20231;-84
2023/04/10 05:33:21;;;;;;;9.40;6.60;;;8.60;99.90;;;;;;5012634;28;20605;-83
2023/04/10 05:35:47;;;;;;;12.87;7.73;;;8.80;99.90;;;;;;5008520;28;20187;-83
2023/04/10 05:38:13;;;;;;;11.47;6.83;;;;;;;;;;5011325;28;20198;-83
2023/04/10 05:40:38;;;;;;;11.70;6.63;;;;;;;;;;5013559;28;20199;-84
2023/04/10 05:43:04;;;;;;;14.73;6.47;;;8.90;99.90;;;;;;5019489;28;20432;-84
2023/04/10 05:45:30;;;;;;;10.87;6.20;;;9.40;99.90;;;;;;5017824;28;20512;-83
2023/04/10 05:47:56;;;;;;;9.37;6.87;;;;;;;;;;5021234;28;20185;-87
2023/04/10 05:50:22;;;;;;;9.73;5.90;;;;;;;;;;5025911;28;20483;-87
2023/04/10 05:52:47;;;;;;;12.30;6.43;;;10.00;99.90;;;;;;5020549;28;20787;-83
2023/04/10 05:55:13;;;;;;;11.30;7.00;;;10.10;99.90;;;;;;5024438;28;21378;-84
2023/04/10 05:57:38;;;;;;;10.20;5.30;;;10.20;99.90;;;;;;5014479;28;20190;-81
2023/04/10 06:00:04;;;;;;;11.93;6.70;;;10.00;99.90;;;;;;5013312;28;20198;-81
2023/04/10 06:02:31;;;;;;;12.15;7.28;;;9.90;99.90;;;;;;5009918;28;20915;-82
2023/04/10 06:04:57;;;;;;;11.40;6.30;;;9.80;99.90;;;;;;5012351;28;20639;-82
2023/04/10 06:07:22;;;;;;;13.47;7.00;;;10.00;99.90;;;;;;5024947;28;20297;-82
2023/04/10 06:09:48;;;;;;;16.03;7.23;;;10.20;99.90;;;;;;5014369;28;20205;-84
2023/04/10 06:12:14;;;;;;;10.67;6.43;;;10.30;99.90;;;;;;5019618;28;20184;-84
2023/04/10 06:14:39;;;;;;;11.10;6.90;;;10.30;99.90;;;;;;5016134;28;20209;-84
2023/04/10 06:17:05;;;;;;;12.27;6.40;;;10.10;99.90;;;;;;5013388;28;20186;-84
2023/04/10 06:19:31;;;;;;;6.17;4.30;;;10.00;99.90;;;;;;5032353;28;20198;-84
2023/04/10 06:21:56;;;;;;;14.53;7.67;;;10.30;99.90;;;;;;5018633;28;20483;-84
2023/04/10 06:24:22;;;;;;;10.53;6.17;;;10.40;99.90;;;;;;5019503;28;20167;-84
2023/04/10 06:26:47;;;;;;;10.50;6.30;;;10.30;99.90;;;;;;5019962;28;20180;-83
2023/04/10 06:29:13;;;;;;;11.23;6.47;;;10.50;99.90;;;;;;5022633;28;20202;-83
2023/04/10 06:31:38;;;;;;;8.17;6.07;;;10.90;99.90;;;;;;5020291;28;20187;-83
2023/04/10 06:34:04;;;;;;;8.37;5.90;;;11.40;99.50;;;;;;5023657;28;20687;-83
2023/04/10 06:36:30;;;;;;;9.13;6.43;;;11.80;98.10;;;;;;5020758;28;20197;-83
2023/04/10 06:38:55;;;;;;;12.10;6.37;;;12.80;95.10;;;;;;5018374;28;20195;-83
2023/04/10 06:41:21;;;;;;;12.07;6.80;;;12.80;95.30;;;;;;5015117;28;20195;-83
2023/04/10 06:43:47;;;;;;;11.33;7.07;;;13.00;94.40;;;;;;5013236;28;20190;-82
2023/04/10 06:46:13;;;;;;;8.30;5.93;;;13.20;94.30;;;;;;5034983;28;20897;-83
2023/04/10 06:48:38;;;;;;;9.25;5.93;;;13.60;93.20;;;;;;5017952;28;20499;-83
2023/04/10 06:51:04;;;;;;;8.43;5.80;;;13.90;91.50;;;;;;5017642;28;20175;-83
2023/04/10 06:53:30;;;;;;;7.63;4.83;;;13.90;91.40;;;;;;5018925;28;20254;-83
2023/04/10 06:55:55;;;;;;;7.73;5.00;;;14.10;91.20;;;;;;5016479;28;20182;-83
2023/04/10 06:58:23;;;;;;;6.60;3.83;;;;;;;;;;5017088;28;20437;-83
2023/04/10 07:00:48;;;;;;;9.10;5.15;;;14.40;88.70;;;;;;5016396;28;20266;-83
2023/04/10 07:03:14;;;;;;;8.90;4.90;;;14.50;88.30;;;;;;5013887;28;20205;-83
2023/04/10 07:05:39;;;;;;;13.13;6.77;;;14.40;86.80;;;;;;5014885;28;20179;-82
2023/04/10 07:08:06;;;;;;;8.10;5.33;;;14.40;86.10;;;;;;5013586;28;20178;-83
2023/04/10 07:10:32;;;;;;;11.40;7.15;;;14.90;87.80;;;;;;5012918;28;20194;-83
2023/04/10 07:12:58;;;;;;;7.13;5.20;;;15.00;85.50;;;;;;5016353;28;20211;-83
2023/04/10 07:15:24;;;;;;;12.17;6.27;;;15.90;84.20;;;;;;5016182;28;20425;-83
2023/04/10 07:17:50;;;;;;;11.33;6.57;;;16.50;81.30;;;;;;5015713;28;20593;-82
2023/04/10 07:20:15;;;;;;;9.23;5.40;;;17.00;79.10;;;;;;5023479;28;20485;-82
2023/04/10 07:22:41;;;;;;;7.20;5.77;;;17.50;78.10;;;;;;5018595;28;20174;-83
2023/04/10 07:25:07;;;;;;;8.57;6.53;;;18.10;75.30;;;;;;5024118;28;20603;-82
2023/04/10 07:27:33;;;;;;;10.60;6.30;;;18.40;71.00;;;;;;5021486;28;20183;-82
2023/04/10 07:29:58;;;;;;;8.13;6.80;;;18.30;70.70;;;;;;5016913;28;20883;-81
2023/04/10 07:32:24;;;;;;;11.20;7.40;;;18.30;69.20;;;;;;5019613;28;20646;-80
2023/04/10 07:34:49;;;;;;;8.10;6.37;;;18.90;68.40;;;;;;5017744;28;20183;-81
2023/04/10 07:37:16;;;;;;;7.50;5.87;;;19.70;66.60;;;;;;5020962;28;20174;-82
2023/04/10 07:39:42;;;;;;;9.27;6.10;;;20.00;66.00;;;;;;5014645;28;20742;-81
2023/04/10 07:42:09;;;;;;;7.70;5.50;;;19.90;63.50;;;;;;5012168;28;20469;-82
2023/04/10 07:44:35;;;;;;;10.10;5.70;;;19.10;60.50;;;;;;5030615;28;20179;-82
2023/04/10 07:47:01;;;;;;;8.57;5.80;;;18.70;61.50;;;;;;5017992;28;20437;-82
2023/04/10 07:49:27;;;;;;;9.73;6.80;;;18.40;62.60;;;;;;5017053;28;20198;-82
2023/04/10 07:51:52;;;;;;;6.30;4.77;;;18.70;61.70;;;;;;5024696;28;20464;-82
2023/04/10 07:54:18;;;;;;;8.00;5.57;;;18.30;61.80;;;;;;5018967;28;20184;-82
2023/04/10 07:56:44;;;;;;;8.13;5.80;;;19.00;63.80;;;;;;5012455;28;20205;-82
2023/04/10 07:59:10;;;;;;;6.23;3.80;;;19.10;60.90;;;;;;5018159;28;20205;-82
2023/04/10 08:01:35;;;;;;;8.40;6.10;;;18.30;60.70;;;;;;5014469;28;20211;-83
2023/04/10 08:04:01;;;;;;;6.83;5.57;;;18.10;61.00;;;;;;5012591;28;20597;-80
2023/04/10 08:06:27;;;;;;;7.93;5.10;;;18.10;62.50;;;;;;5017199;28;20241;-82
2023/04/10 08:08:53;;;;;;;6.10;4.90;;;17.90;62.10;;;;;;5016760;28;20509;-81
2023/04/10 08:11:31;;;;;;;7.40;5.50;;;17.80;62.40;;;;;;5020585;28;20178;-80
2023/04/10 08:14:01;;;;;;;6.70;4.67;;;18.70;59.30;;;;;;5012309;28;20505;-81
2023/04/10 08:16:28;;;;;;;8.00;5.70;;;17.30;58.40;;;;;;5013183;28;20430;-81
2023/04/10 08:18:55;;;;;;;6.90;4.80;;;17.20;59.00;;;;;;5013716;28;20441;-81
2023/04/10 08:21:22;;;;;;;6.30;4.10;;;17.00;59.60;;;;;;5010951;28;20928;-82
2023/04/10 08:23:55;;;;;;;9.30;6.27;;;16.70;60.80;;;;;;5014920;28;20438;-82
2023/04/10 08:26:21;;;;;;;10.07;5.30;;;16.70;60.90;;;;;;5012348;28;20434;-81
2023/04/10 08:28:49;;;;;;;6.17;4.30;;;16.40;60.70;;;;;;5013822;28;20472;-82
2023/04/10 08:31:22;;;;;;;6.07;4.80;;;16.40;61.00;;;;;;5016618;28;20807;-82
2023/04/10 08:33:48;;;;;;;4.40;3.20;;;16.10;63.20;;;;;;5021327;28;20437;-83
2023/04/10 08:36:14;;;;;;;9.90;4.60;;;15.80;60.40;;;;;;5024319;28;20645;-83
2023/04/10 08:38:41;;;;;;;6.27;4.87;;;15.60;62.10;;;;;;5017664;28;20477;-83
2023/04/10 08:41:10;;;;;;;6.03;4.70;;;15.20;65.50;;;;;;5015901;28;20551;-83
2023/04/10 08:43:36;;;;;;;4.50;2.57;;;15.20;65.90;;;;;;5016354;28;20426;-83
2023/04/10 08:46:01;;;;;;;8.00;4.70;;;15.80;63.90;;;;;;5014664;28;20434;-82
2023/04/10 08:48:54;;;;;;;7.00;3.60;;;16.00;63.70;;;;;;5011347;28;20190;-83
2023/04/10 08:51:25;;;;;;;6.17;4.40;;;16.00;60.10;;;;;;5016996;28;20201;-82
2023/04/10 08:53:55;;;;;;;7.07;4.63;;;16.10;61.60;;;;;;5018693;28;20433;-82
2023/04/10 08:56:23;;;;;;;6.83;3.77;;;16.60;62.00;;;;;;5019333;28;20434;-83
2023/04/10 08:58:50;;;;;;;5.07;3.77;;;18.00;55.90;;;;;;5020026;28;20483;-83
2023/04/10 09:01:19;;;;;;;4.33;2.87;;;18.10;56.60;;;;;;5015000;28;20462;-82
2023/04/10 09:03:47;;;;;;;5.60;3.87;;;18.00;55.20;;;;;;5012129;28;21951;-82
2023/04/10 09:06:12;;;;;;;4.20;3.80;;;18.50;57.90;;;;;;5031153;28;20429;-82
2023/04/10 09:08:38;;;;;;;7.90;3.87;;;17.90;54.60;;;;;;5009389;28;20929;-84
2023/04/10 09:11:04;;;;;;;6.17;4.70;;;18.50;57.50;;;;;;5002335;28;20297;-84
2023/04/10 09:13:36;;;;;;;6.93;4.33;;;19.20;55.70;;;;;;5004136;28;20210;-84
2023/04/10 09:16:02;;;;;;;5.90;4.07;;;19.20;54.00;;;;;;5001301;28;20452;-87
2023/04/10 09:18:50;;;;;;;5.50;4.00;;;19.10;54.50;;;;;;5001136;28;21342;-85
2023/04/10 09:21:18;;;;;;;6.50;5.10;;;19.20;55.30;;;;;;5013917;28;20453;-83
2023/04/10 09:23:44;;;;;;;5.70;3.87;;;20.30;53.60;;;;;;5015243;28;20434;-85
2023/04/10 09:26:32;;;;;;;4.87;3.83;;;18.50;53.20;;;;;;5008530;28;20868;-84
2023/04/10 09:29:11;;;;;;;6.47;5.23;;;18.30;57.10;;;;;;5007512;28;20434;-84
2023/04/10 09:31:37;;;;;;;2.93;2.50;;;19.10;54.10;;;;;;5005945;28;20484;-84
2023/04/10 09:34:13;;;;;;;6.33;4.00;;;19.00;54.00;;;;;;5012396;28;20484;-84
2023/04/10 09:36:41;;;;;;;9.00;4.27;;;19.10;54.30;;;;;;5008003;28;20445;-85
2023/04/10 09:39:08;;;;;;;5.57;3.67;;;18.60;55.00;;;;;;5011877;28;20498;-84
2023/04/10 09:41:33;;;;;;;4.70;2.90;;;17.80;56.70;;;;;;5010052;28;20964;-83
2023/04/10 09:44:10;;;;;;;4.13;2.60;;;17.70;55.40;;;;;;5023837;28;20436;-84
2023/04/10 09:46:36;;;;;;;6.53;4.50;;;17.60;55.10;;;;;;5008020;28;21444;-85
2023/04/10 09:49:04;;;;;;;6.30;3.50;;;17.90;56.00;;;;;;5010465;28;20456;-85
2023/04/10 09:51:32;;;;;;;5.93;3.70;;;17.60;56.80;;;;;;5006586;28;20213;-85
2023/04/10 09:53:58;;;;;;;4.60;3.30;;;17.70;58.20;;;;;;5012901;28;20476;-84
2023/04/10 09:56:27;;;;;;;6.20;4.53;;;18.00;56.20;;;;;;5007255;28;20450;-84
2023/04/10 09:59:00;;;;;;;7.50;4.83;;;18.40;54.80;;;;;;5005648;28;20464;-83
2023/04/10 10:01:27;;;;;;;7.53;4.80;;;18.30;55.40;;;;;;5006607;28;20488;-84
2023/04/10 10:03:55;;;;;;;5.43;4.13;;;18.90;59.00;;;;;;5006450;28;20446;-85
2023/04/10 10:06:22;;;;;;;6.20;4.63;;;19.60;56.80;;;;;;5005479;28;20437;-84
2023/04/10 10:08:48;;;;;;;5.63;4.50;;;19.70;54.90;;;;;;5011865;28;20921;-84
2023/04/10 10:11:19;;;;;;;4.73;4.20;;;19.40;54.20;;;;;;5018987;28;20441;-84
2023/04/10 10:13:53;;;;;;;6.10;4.40;;;19.40;54.70;;;;;;5001757;28;21079;-85
2023/04/10 10:16:28;;;;;;;1.93;1.73;;;18.90;51.20;;;;;;5004937;28;20429;-85
2023/04/10 10:19:16;;;;;;;5.90;4.10;;;17.90;53.70;;;;;;5021189;28;20433;-85
2023/04/10 10:21:44;;;;;;;6.43;3.50;;;17.80;53.40;;;;;;5018203;28;20470;-84
2023/04/10 10:24:12;;;;;;;6.10;3.77;;;17.00;54.40;;;;;;5010653;28;20430;-84
2023/04/10 10:26:39;;;;;;;3.23;2.93;;;16.60;57.00;;;;;;5008706;28;20508;-85
2023/04/10 10:29:12;;;;;;;5.27;3.43;;;16.60;58.40;;;;;;5005705;28;20515;-84
2023/04/10 10:31:38;;;;;;;6.13;3.30;;;16.70;57.80;;;;;;5009621;28;21105;-85
2023/04/10 10:34:08;;;;;;;4.13;3.57;;;17.10;56.40;;;;;;5010306;28;20484;-85
2023/04/10 10:36:36;;;;;;;5.50;3.50;;;17.10;56.40;;;;;;5010260;28;20795;-85
2023/04/10 10:39:25;;;;;;;5.40;3.57;;;16.90;54.70;;;;;;5012298;28;21003;-84
2023/04/10 10:42:13;;;;;;;4.50;3.23;;;16.40;56.10;;;;;;5010236;28;20457;-84
2023/04/10 10:44:56;;;;;;;5.27;3.20;;;16.50;58.00;;;;;;5024819;28;20432;-85
2023/04/10 10:47:26;;;;;;;3.90;3.00;;;17.10;56.60;;;;;;5022495;28;20902;-84
2023/04/10 10:49:53;;;;;;;3.63;3.20;;;17.50;56.20;;;;;;5009652;28;21010;-84
2023/04/10 10:52:56;;;;;;;3.63;2.70;;;17.80;55.20;;;;;;5006920;28;20434;-83
2023/04/10 10:55:24;;;;;;;3.30;2.73;;;17.70;54.30;;;;;;5007098;28;20494;-84
2023/04/10 10:57:51;;;;;;;4.90;2.80;;;17.60;54.40;;;;;;5024769;28;20436;-84
2023/04/10 11:00:21;;;;;;;3.77;2.67;;;17.50;52.90;;;;;;5009134;28;20465;-84
2023/04/10 11:03:05;;;;;;;4.93;3.37;;;17.70;54.90;;;;;;5008857;28;20456;-83
2023/04/10 11:05:57;;;;;;;5.27;3.03;;;17.80;52.40;;;;;;5007296;28;21112;-86
2023/04/10 11:08:32;;;;;;;4.97;3.20;;;17.80;53.10;;;;;;5008957;28;20468;-80
2023/04/10 11:11:02;;;;;;;3.90;2.77;;;17.50;51.20;;;;;;5023256;28;20461;-83
2023/04/10 11:13:27;;;;;;;4.83;3.63;;;17.90;53.90;;;;;;5009727;28;20433;-83
2023/04/10 11:15:56;;;;;;;4.63;2.47;;;18.10;53.50;;;;;;5010060;28;21000;-83
2023/04/10 11:18:46;;;;;;;2.93;2.07;;;18.20;50.90;;;;;;5007186;28;20249;-83
2023/04/10 11:21:20;;;;;;;3.07;2.47;;;18.20;50.10;;;;;;5009717;28;20452;-83
2023/04/10 11:23:49;;;;;;;3.63;2.90;;;18.20;48.40;;;;;;5007826;28;21021;-83
2023/04/10 11:26:40;;;;;;;4.40;3.00;;;18.30;52.00;;;;;;5009319;28;20906;-83
2023/04/10 11:29:13;;;;;;;4.53;3.40;;;18.30;51.40;;;;;;5008637;28;20449;-81
2023/04/10 11:31:39;;;;;;;4.90;2.83;;;18.40;50.10;;;;;;5009053;28;20444;-82
2023/04/10 11:34:06;;;;;;;1.60;1.30;;;18.70;50.90;;;;;;5007357;28;20434;-83
2023/04/10 11:36:34;;;;;;;2.57;1.73;;;18.50;47.40;;;;;;5009544;28;20460;-82
2023/04/10 11:39:04;;;;;;;3.20;2.77;;;18.60;48.60;;;;;;5011167;28;20885;-83
2023/04/10 11:41:47;;;;;;;4.23;2.77;;;18.50;47.30;;;;;;5007607;28;20453;-83
2023/04/10 11:44:30;;;;;;;2.77;2.53;;;18.50;48.00;;;;;;5005750;28;20517;-82
2023/04/10 11:46:56;;;;;;;4.13;2.60;;;18.40;50.80;;;;;;5006924;28;20472;-83
2023/04/10 11:49:33;;;;;;;2.60;2.00;;;18.30;47.30;;;;;;5006499;28;20458;-83
2023/04/10 11:51:59;;;;;;;4.73;2.30;;;18.20;47.50;;;;;;5008587;28;20461;-82
2023/04/10 11:54:26;;;;;;;3.13;2.37;;;18.00;48.40;;;;;;5005252;28;20492;-80
2023/04/10 11:57:18;;;;;;;2.80;2.50;;;17.70;49.20;;;;;;5010181;28;20444;-82
2023/04/10 11:59:49;;;;;;;3.40;2.30;;;17.90;50.40;;;;;;5005441;28;20510;-82
2023/04/10 12:02:14;;;;;;;3.70;2.43;;;18.10;47.60;;;;;;5005545;28;20473;-82
2023/04/10 12:04:42;;;;;;;2.20;1.70;;;18.00;47.80;;;;;;5006971;28;20813;-83
2023/04/10 12:07:08;;;;;;;3.90;2.30;;;18.10;47.90;;;;;;5008895;28;20178;-83
2023/04/10 12:09:34;;;;;;;2.47;1.77;;;18.00;48.50;;;;;;5006189;28;20830;-83
2023/04/10 12:12:02;;;;;;;3.87;2.03;;;18.10;48.80;;;;;;5009138;28;20511;-83
2023/04/10 12:14:31;;;;;;;3.07;2.50;;;18.30;50.70;;;;;;5007110;28;20429;-82
2023/04/10 12:16:58;;;;;;;5.03;3.30;;;18.60;49.40;;;;;;5008665;28;20434;-83
2023/04/10 12:19:25;;;;;;;1.50;1.40;;;19.00;47.90;;;;;;5005289;28;20458;-83
2023/04/10 12:21:51;;;;;;;1.40;1.30;;;18.90;42.80;;;;;;5007794;28;20476;-82
2023/04/10 12:24:46;;;;;;;2.70;2.20;;;18.80;45.00;;;;;;5006884;28;20421;-83
2023/04/10 12:27:30;;;;;;;3.50;1.90;;;19.10;44.20;;;;;;5008389;28;20425;-82
2023/04/10 12:29:57;;;;;;;2.63;1.70;;;19.10;45.30;;;;;;5008329;28;20543;-83
2023/04/10 12:32:24;;;;;;;2.93;1.57;;;19.10;46.50;;;;;;5008712;28;20442;-83
2023/04/10 12:34:57;;;;;;;2.93;1.63;;;19.00;43.10;;;;;;5007506;28;20441;-82
2023/04/10 12:37:24;;;;;;;2.97;2.00;;;18.90;45.20;;;;;;5006267;28;20418;-83
2023/04/10 12:39:50;;;;;;;1.57;1.30;;;18.70;45.40;;;;;;5006504;28;20477;-83
2023/04/10 12:42:21;;;;;;;2.63;1.90;;;18.60;44.50;;;;;;5005521;28;20454;-83
2023/04/10 12:44:50;;;;;;;2.20;1.53;;;18.70;44.70;;;;;;5007403;28;20433;-83
2023/04/10 12:47:15;;;;;;;2.47;1.33;;;19.40;40.60;;;;;;5007477;28;20452;-83
2023/04/10 12:49:41;;;;;;;1.30;0.93;;;19.40;40.60;;;;;;5009556;28;20949;-83
2023/04/10 12:52:06;;;;;;;1.83;1.20;;;19.40;37.90;;;;;;5013315;28;20187;-83
2023/04/10 12:54:34;;;;;;;1.30;1.20;;;19.10;40.10;;;;;;5012037;28;20185;-84